createdAt,value
2019-02-28T00:00:57.114Z,13.10
2019-02-28T00:01:57.088Z,12.20
2019-02-28T00:02:57.095Z,12.20
2019-02-28T00:03:57.955Z,11.50
2019-02-28T00:04:57.103Z,11.50
2019-02-28T00:05:57.145Z,11.80
2019-02-28T00:06:57.125Z,11.60
2019-02-28T00:07:57.138Z,12.00
2019-02-28T00:08:57.146Z,11.70
2019-02-28T00:09:57.485Z,12.00
2019-02-28T00:10:57.191Z,12.30
2019-02-28T00:11:57.134Z,12.70
2019-02-28T00:12:57.163Z,13.00
2019-02-28T00:13:57.148Z,13.10
2019-02-28T00:14:58.606Z,13.40
2019-02-28T00:15:57.153Z,14.00
2019-02-28T00:16:57.178Z,12.20
2019-02-28T00:17:57.226Z,11.90
2019-02-28T00:18:57.187Z,13.60
2019-02-28T00:19:57.998Z,11.00
2019-02-28T00:20:57.178Z,11.00
2019-02-28T00:21:57.174Z,12.40
2019-02-28T00:22:57.182Z,12.50
2019-02-28T00:23:57.500Z,11.90
2019-02-28T00:24:57.209Z,11.30
2019-02-28T00:25:57.200Z,11.00
2019-02-28T00:26:57.218Z,11.50
2019-02-28T00:27:57.206Z,11.10
2019-02-28T00:29:00.463Z,11.30
2019-02-28T00:29:57.216Z,11.30
2019-02-28T00:30:57.217Z,11.20
2019-02-28T00:31:57.237Z,11.80
2019-02-28T00:32:59.434Z,13.10
2019-02-28T00:33:57.244Z,11.90
2019-02-28T00:34:57.288Z,10.80
2019-02-28T00:35:57.284Z,14.40
2019-02-28T00:36:57.251Z,12.10
2019-02-28T00:37:57.446Z,12.00
2019-02-28T00:38:59.900Z,11.00
2019-02-28T00:39:57.268Z,12.20
2019-02-28T00:40:57.332Z,10.60
2019-02-28T00:41:57.299Z,11.10
2019-02-28T00:42:57.311Z,10.90
2019-02-28T00:43:57.931Z,11.60
2019-02-28T00:44:57.282Z,12.60
2019-02-28T00:45:57.365Z,11.70
2019-02-28T00:46:57.310Z,11.60
2019-02-28T00:47:57.327Z,12.30
2019-02-28T00:48:57.327Z,11.10
2019-02-28T00:49:57.348Z,10.10
2019-02-28T00:50:58.542Z,11.30
2019-02-28T00:51:57.380Z,10.60
2019-02-28T00:52:57.349Z,11.40
2019-02-28T00:53:57.537Z,11.20
2019-02-28T00:54:57.324Z,9.90
2019-02-28T00:55:57.353Z,10.90
2019-02-28T00:56:57.403Z,11.40
2019-02-28T00:57:57.391Z,10.50
2019-02-28T00:59:00.425Z,11.30
2019-02-28T00:59:57.360Z,10.90
2019-02-28T01:00:57.362Z,10.20
2019-02-28T01:01:57.369Z,9.70
2019-02-28T01:02:58.047Z,9.00
2019-02-28T01:03:58.196Z,8.80
2019-02-28T01:04:57.390Z,9.30
2019-02-28T01:05:57.398Z,8.50
2019-02-28T01:06:57.399Z,8.90
2019-02-28T01:07:57.428Z,8.90
2019-02-28T01:08:57.425Z,8.20
2019-02-28T01:09:57.402Z,8.90
2019-02-28T01:10:57.426Z,9.00
2019-02-28T01:11:57.405Z,8.50
2019-02-28T01:12:57.426Z,7.80
2019-02-28T01:13:58.056Z,8.30
2019-02-28T01:14:57.432Z,8.40
2019-02-28T01:15:57.482Z,8.30
2019-02-28T01:16:57.437Z,8.30
2019-02-28T01:18:00.478Z,7.90
2019-02-28T01:18:57.464Z,8.00
2019-02-28T01:19:57.460Z,9.10
2019-02-28T01:20:57.467Z,8.00
2019-02-28T01:21:57.454Z,8.90
2019-02-28T01:22:58.467Z,8.60
2019-02-28T01:24:00.643Z,8.30
2019-02-28T01:24:57.524Z,8.20
2019-02-28T01:25:57.482Z,8.20
2019-02-28T01:26:57.503Z,8.20
2019-02-28T01:27:57.493Z,8.20
2019-02-28T01:29:01.487Z,8.60
2019-02-28T01:29:57.506Z,8.00
2019-02-28T01:30:57.555Z,8.40
2019-02-28T01:31:57.507Z,8.40
2019-02-28T01:32:57.514Z,8.20
2019-02-28T01:33:58.741Z,7.80
2019-02-28T01:34:57.520Z,9.00
2019-02-28T01:35:57.536Z,7.90
2019-02-28T01:36:57.572Z,9.50
2019-02-28T01:37:57.528Z,8.10
2019-02-28T01:38:58.098Z,8.20
2019-02-28T01:39:57.541Z,8.40
2019-02-28T01:40:57.572Z,8.30
2019-02-28T01:41:57.590Z,7.90
2019-02-28T01:42:57.573Z,8.20
2019-02-28T01:43:57.559Z,8.10
2019-02-28T01:44:57.603Z,7.90
2019-02-28T01:45:57.586Z,8.80
2019-02-28T01:46:57.604Z,7.90
2019-02-28T01:47:57.597Z,8.30
2019-02-28T01:48:57.590Z,7.80
2019-02-28T01:49:58.745Z,8.00
2019-02-28T01:51:00.809Z,8.00
2019-02-28T01:51:57.603Z,8.10
2019-02-28T01:52:57.614Z,8.10
2019-02-28T01:53:57.602Z,8.00
2019-02-28T01:54:58.557Z,8.10
2019-02-28T01:56:02.236Z,8.10
2019-02-28T01:56:57.654Z,8.20
2019-02-28T01:57:57.645Z,8.40
2019-02-28T01:58:57.631Z,8.50
2019-02-28T01:59:57.770Z,8.00
2019-02-28T02:00:58.183Z,8.40
2019-02-28T02:01:57.688Z,8.30
2019-02-28T02:02:57.643Z,8.20
2019-02-28T02:03:57.657Z,8.50
2019-02-28T02:04:57.724Z,8.40
2019-02-28T02:05:57.659Z,8.10
2019-02-28T02:06:59.908Z,7.60
2019-02-28T02:07:57.706Z,8.90
2019-02-28T02:08:57.680Z,8.80
2019-02-28T02:09:57.736Z,8.80
2019-02-28T02:10:57.690Z,8.20
2019-02-28T02:11:58.915Z,8.80
2019-02-28T02:12:57.730Z,8.60
2019-02-28T02:13:57.713Z,8.90
2019-02-28T02:14:57.726Z,8.50
2019-02-28T02:15:57.719Z,8.80
2019-02-28T02:16:58.213Z,9.10
2019-02-28T02:17:57.751Z,9.10
2019-02-28T02:18:57.723Z,9.20
2019-02-28T02:19:57.771Z,8.60
2019-02-28T02:21:00.219Z,9.60
2019-02-28T02:21:57.777Z,8.80
2019-02-28T02:22:57.766Z,8.50
2019-02-28T02:23:57.747Z,9.30
2019-02-28T02:24:59.294Z,9.20
2019-02-28T02:25:57.759Z,9.20
2019-02-28T02:26:57.769Z,9.40
2019-02-28T02:27:57.800Z,9.00
2019-02-28T02:29:00.830Z,8.90
2019-02-28T02:29:57.860Z,9.40
2019-02-28T02:30:57.787Z,9.10
2019-02-28T02:32:01.334Z,10.20
2019-02-28T02:32:57.790Z,9.30
2019-02-28T02:33:57.820Z,9.60
2019-02-28T02:35:06.277Z,9.20
2019-02-28T02:35:57.837Z,9.40
2019-02-28T02:36:57.824Z,9.80
2019-02-28T02:37:57.817Z,9.20
2019-02-28T02:38:57.874Z,9.10
2019-02-28T02:39:57.848Z,9.50
2019-02-28T02:41:00.459Z,10.40
2019-02-28T02:41:57.856Z,10.10
2019-02-28T02:42:57.931Z,10.30
2019-02-28T02:43:57.871Z,9.70
2019-02-28T02:44:57.880Z,9.20
2019-02-28T02:45:57.881Z,9.50
2019-02-28T02:46:57.878Z,9.70
2019-02-28T02:47:57.901Z,9.70
2019-02-28T02:48:58.001Z,9.70
2019-02-28T02:49:57.920Z,9.90
2019-02-28T02:50:57.906Z,11.20
2019-02-28T02:51:57.879Z,10.10
2019-02-28T02:53:05.017Z,9.90
2019-02-28T02:53:57.919Z,10.10
2019-02-28T02:54:57.926Z,10.70
2019-02-28T02:56:03.558Z,10.20
2019-02-28T02:56:57.929Z,10.60
2019-02-28T02:57:57.917Z,11.00
2019-02-28T02:59:01.095Z,10.60
2019-02-28T02:59:57.937Z,10.60
2019-02-28T03:00:57.955Z,11.00
2019-02-28T03:01:57.970Z,10.80
2019-02-28T03:02:57.933Z,10.60
2019-02-28T03:03:57.944Z,11.10
2019-02-28T03:04:59.341Z,10.80
2019-02-28T03:05:57.963Z,11.10
2019-02-28T03:06:57.961Z,10.90
2019-02-28T03:07:59.821Z,11.20
2019-02-28T03:08:57.989Z,11.20
2019-02-28T03:09:57.993Z,11.50
2019-02-28T03:10:58.012Z,11.00
2019-02-28T03:11:58.817Z,11.30
2019-02-28T03:12:58.130Z,10.30
2019-02-28T03:13:58.010Z,11.50
2019-02-28T03:14:58.001Z,10.60
2019-02-28T03:15:59.295Z,11.40
2019-02-28T03:16:58.110Z,10.70
2019-02-28T03:17:58.032Z,11.70
2019-02-28T03:18:58.393Z,11.00
2019-02-28T03:19:58.066Z,11.30
2019-02-28T03:20:58.034Z,11.70
2019-02-28T03:21:58.064Z,10.90
2019-02-28T03:23:01.941Z,11.50
2019-02-28T03:23:58.053Z,12.20
2019-02-28T03:24:58.099Z,12.10
2019-02-28T03:26:05.529Z,11.50
2019-02-28T03:26:58.099Z,11.30
2019-02-28T03:27:58.068Z,12.10
2019-02-28T03:28:58.104Z,11.90
2019-02-28T03:29:58.073Z,12.00
2019-02-28T03:30:58.089Z,11.30
2019-02-28T03:31:59.532Z,12.50
2019-02-28T03:32:58.075Z,11.60
2019-02-28T03:34:10.484Z,12.00
2019-02-28T03:34:59.342Z,12.30
2019-02-28T03:35:58.102Z,12.20
2019-02-28T03:36:58.098Z,12.20
2019-02-28T03:37:58.143Z,11.50
2019-02-28T03:38:58.112Z,11.50
2019-02-28T03:40:02.966Z,12.20
2019-02-28T03:40:58.107Z,12.40
2019-02-28T03:41:58.127Z,12.20
2019-02-28T03:43:05.240Z,12.90
2019-02-28T03:43:58.227Z,12.10
2019-02-28T03:44:58.364Z,12.40
2019-02-28T03:45:58.159Z,13.00
2019-02-28T03:46:58.184Z,12.90
2019-02-28T03:47:58.766Z,12.50
2019-02-28T03:48:58.246Z,13.10
2019-02-28T03:49:58.165Z,13.20
2019-02-28T03:50:58.182Z,12.50
2019-02-28T03:52:05.504Z,12.30
2019-02-28T03:52:58.221Z,13.00
2019-02-28T03:53:58.211Z,12.60
2019-02-28T03:55:03.353Z,13.20
2019-02-28T03:55:58.250Z,12.20
2019-02-28T03:56:58.191Z,12.90
2019-02-28T03:58:03.751Z,12.40
2019-02-28T03:58:58.280Z,12.80
2019-02-28T03:59:58.215Z,13.20
2019-02-28T04:00:58.232Z,12.60
2019-02-28T04:01:58.240Z,13.30
2019-02-28T04:02:59.089Z,13.30
2019-02-28T04:03:58.223Z,13.90
2019-02-28T04:04:58.250Z,13.40
2019-02-28T04:06:02.887Z,13.50
2019-02-28T04:06:58.257Z,13.80
2019-02-28T04:07:58.267Z,13.20
2019-02-28T04:08:58.240Z,13.10
2019-02-28T04:09:58.309Z,13.50
2019-02-28T04:10:58.250Z,13.20
2019-02-28T04:11:58.333Z,13.20
2019-02-28T04:12:58.269Z,12.80
2019-02-28T04:13:58.259Z,13.20
2019-02-28T04:14:58.315Z,13.30
2019-02-28T04:16:08.666Z,14.60
2019-02-28T04:16:58.298Z,13.50
2019-02-28T04:17:58.301Z,13.80
2019-02-28T04:18:58.293Z,13.40
2019-02-28T04:20:00.143Z,14.00
2019-02-28T04:20:58.306Z,14.80
2019-02-28T04:21:58.308Z,14.50
2019-02-28T04:23:00.080Z,14.50
2019-02-28T04:23:58.323Z,14.80
2019-02-28T04:24:58.309Z,14.50
2019-02-28T04:25:58.336Z,17.50
2019-02-28T04:26:58.358Z,18.00
2019-02-28T04:27:58.373Z,15.30
2019-02-28T04:28:58.360Z,14.70
2019-02-28T04:30:02.579Z,15.40
2019-02-28T04:30:58.348Z,15.40
2019-02-28T04:31:58.343Z,15.30
2019-02-28T04:33:01.407Z,15.30
2019-02-28T04:33:58.375Z,15.90
2019-02-28T04:34:58.361Z,15.20
2019-02-28T04:36:00.587Z,15.00
2019-02-28T04:36:58.372Z,15.50
2019-02-28T04:37:58.407Z,15.70
2019-02-28T04:38:58.432Z,16.40
2019-02-28T04:39:58.427Z,16.30
2019-02-28T04:40:59.034Z,15.20
2019-02-28T04:41:58.389Z,16.80
2019-02-28T04:42:58.402Z,16.20
2019-02-28T04:43:58.397Z,16.20
2019-02-28T04:44:58.474Z,15.90
2019-02-28T04:45:58.501Z,16.70
2019-02-28T04:46:58.482Z,16.80
2019-02-28T04:47:58.510Z,16.80
2019-02-28T04:48:58.426Z,16.90
2019-02-28T04:49:58.433Z,16.10
2019-02-28T04:50:58.463Z,15.60
2019-02-28T04:51:58.436Z,16.00
2019-02-28T04:52:58.488Z,17.20
2019-02-28T04:53:58.464Z,16.80
2019-02-28T04:54:59.410Z,17.20
2019-02-28T04:55:58.499Z,16.40
2019-02-28T04:56:58.452Z,17.00
2019-02-28T04:57:58.456Z,17.30
2019-02-28T04:58:59.519Z,17.30
2019-02-28T04:59:58.465Z,17.10
2019-02-28T05:00:58.497Z,16.80
2019-02-28T05:01:58.557Z,16.10
2019-02-28T05:02:58.512Z,16.70
2019-02-28T05:03:59.227Z,17.60
2019-02-28T05:04:58.560Z,17.30
2019-02-28T05:05:58.510Z,17.20
2019-02-28T05:06:58.608Z,17.40
2019-02-28T05:08:04.639Z,18.00
2019-02-28T05:08:58.554Z,17.60
2019-02-28T05:09:58.565Z,17.50
2019-02-28T05:10:58.529Z,17.70
2019-02-28T05:11:58.557Z,17.40
2019-02-28T05:12:58.564Z,18.20
2019-02-28T05:13:58.559Z,17.70
2019-02-28T05:15:02.130Z,18.60
2019-02-28T05:15:58.554Z,18.50
2019-02-28T05:16:58.578Z,19.10
2019-02-28T05:17:58.569Z,19.00
2019-02-28T05:19:01.539Z,18.90
2019-02-28T05:19:58.563Z,19.20
2019-02-28T05:20:58.569Z,19.40
2019-02-28T05:21:58.614Z,20.00
2019-02-28T05:22:59.249Z,20.20
2019-02-28T05:23:58.611Z,19.80
2019-02-28T05:24:58.594Z,21.00
2019-02-28T05:25:58.591Z,21.60
2019-02-28T05:27:00.243Z,20.70
2019-02-28T05:27:58.603Z,21.20
2019-02-28T05:28:58.660Z,21.40
2019-02-28T05:29:58.594Z,21.60
2019-02-28T05:30:58.606Z,21.70
2019-02-28T05:32:00.938Z,21.40
2019-02-28T05:32:58.614Z,22.00
2019-02-28T05:33:58.641Z,22.30
2019-02-28T05:34:58.651Z,21.80
2019-02-28T05:36:00.154Z,21.80
2019-02-28T05:36:58.639Z,21.90
2019-02-28T05:37:58.659Z,21.90
2019-02-28T05:38:58.663Z,21.70
2019-02-28T05:39:58.693Z,22.40
2019-02-28T05:40:58.651Z,21.80
2019-02-28T05:41:58.656Z,22.00
2019-02-28T05:42:59.219Z,23.30
2019-02-28T05:43:58.666Z,23.40
2019-02-28T05:44:58.683Z,23.10
2019-02-28T05:45:59.455Z,23.40
2019-02-28T05:46:58.805Z,22.40
2019-02-28T05:47:58.685Z,23.40
2019-02-28T05:48:58.706Z,22.80
2019-02-28T05:49:58.714Z,22.90
2019-02-28T05:50:58.720Z,22.70
2019-02-28T05:51:59.871Z,22.70
2019-02-28T05:52:58.735Z,23.50
2019-02-28T05:53:58.726Z,23.40
2019-02-28T05:54:58.705Z,23.30
2019-02-28T05:55:59.737Z,23.10
2019-02-28T05:56:58.758Z,23.70
2019-02-28T05:57:58.722Z,23.20
2019-02-28T05:58:58.800Z,23.00
2019-02-28T06:00:01.918Z,23.40
2019-02-28T06:00:58.744Z,24.10
2019-02-28T06:01:58.799Z,23.80
2019-02-28T06:02:59.050Z,23.10
2019-02-28T06:04:02.667Z,24.00
2019-02-28T06:04:58.769Z,23.80
2019-02-28T06:05:58.774Z,22.90
2019-02-28T06:06:58.757Z,24.10
2019-02-28T06:08:00.456Z,23.80
2019-02-28T06:08:58.763Z,24.00
2019-02-28T06:09:58.777Z,24.50
2019-02-28T06:11:00.638Z,26.20
2019-02-28T06:11:58.859Z,25.40
2019-02-28T06:12:58.801Z,24.20
2019-02-28T06:13:58.846Z,24.70
2019-02-28T06:15:03.096Z,25.30
2019-02-28T06:15:58.794Z,24.90
2019-02-28T06:16:58.806Z,25.00
2019-02-28T06:17:58.834Z,26.20
2019-02-28T06:18:58.832Z,26.70
2019-02-28T06:19:58.860Z,25.00
2019-02-28T06:20:58.819Z,25.80
2019-02-28T06:21:59.439Z,25.40
2019-02-28T06:22:58.833Z,25.90
2019-02-28T06:23:58.854Z,25.20
2019-02-28T06:24:58.878Z,25.30
2019-02-28T06:25:59.383Z,25.30
2019-02-28T06:26:58.853Z,25.90
2019-02-28T06:27:58.988Z,26.10
2019-02-28T06:28:58.860Z,26.20
2019-02-28T06:29:58.885Z,25.90
2019-02-28T06:31:00.285Z,25.90
2019-02-28T06:31:58.892Z,26.10
2019-02-28T06:32:59.586Z,25.50
2019-02-28T06:33:58.899Z,26.10
2019-02-28T06:34:59.951Z,26.40
2019-02-28T06:35:58.945Z,27.20
2019-02-28T06:37:00.341Z,27.40
2019-02-28T06:37:58.920Z,26.40
2019-02-28T06:38:58.901Z,27.00
2019-02-28T06:39:59.365Z,27.00
2019-02-28T06:40:58.922Z,27.70
2019-02-28T06:41:58.917Z,27.50
2019-02-28T06:42:58.926Z,29.00
2019-02-28T06:43:58.932Z,27.80
2019-02-28T06:45:02.689Z,28.40
2019-02-28T06:45:59.032Z,28.30
2019-02-28T06:46:58.966Z,27.70
2019-02-28T06:47:59.517Z,27.50
2019-02-28T06:49:05.891Z,28.20
2019-02-28T06:49:58.978Z,27.70
2019-02-28T06:50:58.998Z,28.00
2019-02-28T06:51:59.014Z,28.30
2019-02-28T06:52:59.310Z,27.80
2019-02-28T06:53:58.978Z,28.20
2019-02-28T06:54:58.969Z,28.50
2019-02-28T06:55:58.980Z,28.60
2019-02-28T06:56:58.999Z,28.70
2019-02-28T06:57:59.769Z,29.80
2019-02-28T06:58:58.989Z,29.70
2019-02-28T06:59:59.092Z,28.70
2019-02-28T07:00:59.005Z,28.40
2019-02-28T07:01:59.011Z,28.60
2019-02-28T07:02:59.095Z,29.60
2019-02-28T07:03:59.053Z,29.20
2019-02-28T07:04:59.025Z,28.70
2019-02-28T07:06:01.021Z,30.50
2019-02-28T07:06:59.038Z,29.00
2019-02-28T07:07:59.081Z,28.70
2019-02-28T07:09:02.128Z,29.40
2019-02-28T07:09:59.049Z,29.90
2019-02-28T07:10:59.056Z,29.10
2019-02-28T07:11:59.054Z,28.70
2019-02-28T07:13:03.984Z,29.30
2019-02-28T07:13:59.130Z,30.80
2019-02-28T07:14:59.132Z,30.70
2019-02-28T07:15:59.925Z,30.50
2019-02-28T07:16:59.086Z,31.10
2019-02-28T07:17:59.076Z,31.10
2019-02-28T07:18:59.105Z,31.20
2019-02-28T07:20:01.975Z,31.70
2019-02-28T07:20:59.156Z,31.20
2019-02-28T07:21:59.112Z,31.90
2019-02-28T07:22:59.109Z,31.20
2019-02-28T07:24:02.450Z,32.50
2019-02-28T07:24:59.114Z,32.60
2019-02-28T07:25:59.138Z,32.40
2019-02-28T07:26:59.184Z,31.60
2019-02-28T07:28:01.540Z,33.30
2019-02-28T07:28:59.133Z,31.90
2019-02-28T07:29:59.137Z,34.00
2019-02-28T07:30:59.179Z,34.50
2019-02-28T07:32:01.254Z,33.50
2019-02-28T07:32:59.160Z,32.30
2019-02-28T07:33:59.158Z,31.50
2019-02-28T07:34:59.170Z,34.00
2019-02-28T07:35:59.166Z,32.70
2019-02-28T07:36:59.193Z,34.20
2019-02-28T07:37:59.196Z,33.90
2019-02-28T07:39:01.229Z,33.80
2019-02-28T07:39:59.206Z,33.10
2019-02-28T07:40:59.195Z,34.00
2019-02-28T07:42:02.196Z,35.00
2019-02-28T07:42:59.251Z,34.10
2019-02-28T07:43:59.246Z,34.50
2019-02-28T07:44:59.206Z,34.80
2019-02-28T07:45:59.200Z,35.50
2019-02-28T07:46:59.232Z,34.10
2019-02-28T07:47:59.211Z,35.50
2019-02-28T07:49:00.927Z,34.90
2019-02-28T07:49:59.244Z,35.50
2019-02-28T07:50:59.359Z,35.50
2019-02-28T07:51:59.236Z,36.70
2019-02-28T07:52:59.237Z,37.90
2019-02-28T07:54:01.508Z,37.50
2019-02-28T07:54:59.292Z,36.70
2019-02-28T07:55:59.259Z,37.80
2019-02-28T07:56:59.261Z,37.60
2019-02-28T07:57:59.273Z,37.80
2019-02-28T07:58:59.281Z,37.10
2019-02-28T07:59:59.989Z,37.80
2019-02-28T08:00:59.296Z,38.10
2019-02-28T08:01:59.941Z,37.80
2019-02-28T08:02:59.297Z,37.90
2019-02-28T08:03:59.294Z,37.90
2019-02-28T08:04:59.306Z,38.10
2019-02-28T08:06:04.525Z,38.20
2019-02-28T08:06:59.317Z,37.90
2019-02-28T08:07:59.321Z,39.10
2019-02-28T08:09:01.740Z,38.90
2019-02-28T08:09:59.341Z,38.70
2019-02-28T08:10:59.337Z,38.90
2019-02-28T08:11:59.349Z,39.30
2019-02-28T08:12:59.351Z,39.90
2019-02-28T08:13:59.341Z,41.00
2019-02-28T08:14:59.374Z,40.30
2019-02-28T08:16:00.337Z,41.00
2019-02-28T08:16:59.382Z,39.60
2019-02-28T08:17:59.365Z,40.70
2019-02-28T08:18:59.367Z,39.50
2019-02-28T08:19:59.658Z,39.90
2019-02-28T08:20:59.411Z,40.60
2019-02-28T08:21:59.377Z,41.10
2019-02-28T08:22:59.385Z,41.20
2019-02-28T08:23:59.395Z,40.80
2019-02-28T08:24:59.408Z,41.70
2019-02-28T08:25:59.420Z,41.50
2019-02-28T08:26:59.412Z,40.90
2019-02-28T08:28:00.631Z,42.90
2019-02-28T08:28:59.460Z,40.90
2019-02-28T08:29:59.429Z,41.30
2019-02-28T08:30:59.453Z,40.50
2019-02-28T08:31:59.433Z,42.20
2019-02-28T08:32:59.448Z,41.30
2019-02-28T08:33:59.465Z,41.40
2019-02-28T08:34:59.658Z,42.50
2019-02-28T08:35:59.494Z,42.70
2019-02-28T08:36:59.489Z,42.00
2019-02-28T08:37:59.466Z,41.70
2019-02-28T08:38:59.551Z,42.10
2019-02-28T08:39:59.495Z,43.70
2019-02-28T08:40:59.507Z,42.10
2019-02-28T08:42:04.590Z,43.20
2019-02-28T08:42:59.617Z,42.10
2019-02-28T08:43:59.506Z,44.60
2019-02-28T08:44:59.626Z,43.70
2019-02-28T08:45:59.526Z,42.00
2019-02-28T08:46:59.528Z,43.10
2019-02-28T08:47:59.519Z,43.30
2019-02-28T08:48:59.547Z,42.60
2019-02-28T08:49:59.552Z,43.30
2019-02-28T08:50:59.533Z,44.40
2019-02-28T08:52:02.456Z,43.60
2019-02-28T08:52:59.542Z,43.00
2019-02-28T08:53:59.553Z,44.80
2019-02-28T08:54:59.703Z,43.80
2019-02-28T08:55:59.549Z,44.00
2019-02-28T08:56:59.618Z,43.80
2019-02-28T08:58:05.233Z,43.30
2019-02-28T08:58:59.581Z,44.40
2019-02-28T08:59:59.582Z,43.80
2019-02-28T09:00:59.598Z,43.80
2019-02-28T09:01:59.599Z,44.10
2019-02-28T09:03:00.875Z,44.70
2019-02-28T09:04:04.789Z,42.70
2019-02-28T09:04:59.616Z,42.70
2019-02-28T09:06:00.920Z,44.30
2019-02-28T09:06:59.618Z,42.00
2019-02-28T09:07:59.641Z,43.50
2019-02-28T09:08:59.913Z,43.20
2019-02-28T09:09:59.623Z,44.20
2019-02-28T09:10:59.683Z,43.30
2019-02-28T09:11:59.648Z,43.10
2019-02-28T09:12:59.668Z,43.30
2019-02-28T09:13:59.679Z,44.50
2019-02-28T09:14:59.662Z,43.70
2019-02-28T09:16:01.994Z,43.20
2019-02-28T09:16:59.665Z,44.60
2019-02-28T09:17:59.767Z,47.10
2019-02-28T09:19:00.875Z,45.30
2019-02-28T09:19:59.685Z,45.50
2019-02-28T09:20:59.684Z,44.20
2019-02-28T09:21:59.696Z,45.50
2019-02-28T09:23:02.151Z,43.70
2019-02-28T09:23:59.746Z,45.30
2019-02-28T09:24:59.712Z,44.00
2019-02-28T09:25:59.719Z,46.60
2019-02-28T09:27:01.328Z,44.30
2019-02-28T09:27:59.778Z,43.20
2019-02-28T09:28:59.752Z,42.80
2019-02-28T09:29:59.758Z,44.20
2019-02-28T09:31:04.557Z,45.60
2019-02-28T09:31:59.758Z,44.30
2019-02-28T09:32:59.764Z,45.20
2019-02-28T09:33:59.851Z,45.10
2019-02-28T09:35:02.579Z,46.00
2019-02-28T09:35:59.799Z,43.90
2019-02-28T09:36:59.788Z,46.00
2019-02-28T09:38:03.228Z,45.80
2019-02-28T09:38:59.865Z,44.70
2019-02-28T09:39:59.810Z,44.00
2019-02-28T09:41:01.475Z,44.70
2019-02-28T09:41:59.823Z,43.70
2019-02-28T09:42:59.819Z,47.60
2019-02-28T09:44:00.346Z,44.10
2019-02-28T09:44:59.850Z,44.50
2019-02-28T09:45:59.832Z,46.30
2019-02-28T09:46:59.849Z,44.20
2019-02-28T09:48:02.032Z,44.50
2019-02-28T09:49:00.037Z,44.40
2019-02-28T09:49:59.872Z,45.30
2019-02-28T09:50:59.886Z,47.40
2019-02-28T09:51:59.866Z,44.90
2019-02-28T09:52:59.864Z,45.00
2019-02-28T09:53:59.902Z,45.60
2019-02-28T09:54:59.890Z,43.10
2019-02-28T09:55:59.958Z,45.90
2019-02-28T09:57:01.159Z,44.30
2019-02-28T09:57:59.882Z,45.70
2019-02-28T09:59:00.250Z,46.10
2019-02-28T09:59:59.895Z,44.20
2019-02-28T10:01:00.089Z,44.60
2019-02-28T10:02:01.812Z,43.10
2019-02-28T10:02:59.918Z,42.70
2019-02-28T10:03:59.967Z,45.50
2019-02-28T10:05:02.946Z,44.20
2019-02-28T10:05:59.986Z,44.40
2019-02-28T10:06:59.941Z,42.90
2019-02-28T10:08:02.872Z,43.80
2019-02-28T10:08:59.965Z,43.60
2019-02-28T10:09:59.982Z,45.00
2019-02-28T10:11:00.105Z,43.70
2019-02-28T10:11:59.980Z,42.50
2019-02-28T10:12:59.991Z,46.50
2019-02-28T10:13:59.983Z,44.90
2019-02-28T10:15:00.658Z,44.10
2019-02-28T10:16:00.032Z,43.70
2019-02-28T10:17:00.064Z,45.10
2019-02-28T10:18:00.674Z,45.80
2019-02-28T10:19:00.291Z,45.80
2019-02-28T10:20:00.015Z,45.10
2019-02-28T10:21:01.832Z,44.90
2019-02-28T10:22:00.093Z,44.80
2019-02-28T10:23:00.065Z,45.20
2019-02-28T10:24:00.062Z,42.50
2019-02-28T10:25:00.165Z,42.40
2019-02-28T10:26:00.052Z,42.40
2019-02-28T10:27:00.068Z,42.00
2019-02-28T10:28:02.540Z,41.90
2019-02-28T10:29:01.261Z,43.60
2019-02-28T10:30:00.128Z,44.30
2019-02-28T10:31:00.096Z,43.10
2019-02-28T10:32:00.118Z,43.70
2019-02-28T10:33:00.197Z,45.00
2019-02-28T10:34:00.114Z,44.10
2019-02-28T10:35:01.353Z,44.00
2019-02-28T10:36:00.112Z,41.80
2019-02-28T10:37:00.121Z,41.10
2019-02-28T10:38:00.366Z,40.60
2019-02-28T10:39:00.130Z,42.00
2019-02-28T10:40:00.313Z,43.00
2019-02-28T10:41:00.162Z,38.50
2019-02-28T10:42:01.497Z,43.20
2019-02-28T10:43:00.146Z,40.90
2019-02-28T10:44:00.181Z,41.80
2019-02-28T10:45:00.269Z,42.00
2019-02-28T10:46:00.187Z,43.50
2019-02-28T10:47:00.174Z,44.90
2019-02-28T10:48:02.871Z,39.00
2019-02-28T10:49:00.216Z,45.50
2019-02-28T10:50:00.287Z,42.20
2019-02-28T10:51:00.237Z,43.20
2019-02-28T10:52:00.232Z,41.70
2019-02-28T10:53:04.225Z,39.80
2019-02-28T10:54:00.374Z,40.20
2019-02-28T10:55:00.304Z,42.10
2019-02-28T10:56:00.287Z,40.30
2019-02-28T10:57:02.995Z,40.60
2019-02-28T10:58:00.260Z,41.70
2019-02-28T10:59:00.282Z,42.90
2019-02-28T11:00:00.344Z,42.00
2019-02-28T11:01:00.293Z,42.00
2019-02-28T11:02:00.311Z,42.80
2019-02-28T11:03:00.277Z,39.90
2019-02-28T11:04:00.343Z,44.20
2019-02-28T11:05:00.375Z,42.10
2019-02-28T11:06:00.303Z,41.20
2019-02-28T11:07:02.211Z,43.00
2019-02-28T11:08:00.308Z,43.00
2019-02-28T11:09:00.339Z,43.70
2019-02-28T11:10:01.944Z,41.80
2019-02-28T11:11:00.352Z,40.90
2019-02-28T11:12:00.412Z,40.00
2019-02-28T11:13:00.346Z,42.10
2019-02-28T11:14:03.849Z,40.80
2019-02-28T11:15:00.357Z,42.80
2019-02-28T11:16:00.384Z,42.00
2019-02-28T11:17:00.417Z,42.50
2019-02-28T11:18:00.403Z,42.10
2019-02-28T11:19:00.412Z,40.00
2019-02-28T11:20:00.388Z,41.60
2019-02-28T11:21:00.418Z,41.60
2019-02-28T11:22:01.459Z,46.80
2019-02-28T11:23:00.412Z,42.40
2019-02-28T11:24:00.405Z,44.70
2019-02-28T11:25:00.950Z,39.10
2019-02-28T11:26:00.437Z,38.30
2019-02-28T11:27:00.425Z,39.60
2019-02-28T11:28:00.455Z,42.80
2019-02-28T11:29:03.019Z,41.10
2019-02-28T11:30:00.434Z,40.60
2019-02-28T11:31:00.447Z,39.60
2019-02-28T11:32:00.446Z,39.70
2019-02-28T11:33:04.491Z,41.30
2019-02-28T11:34:00.509Z,39.10
2019-02-28T11:35:00.486Z,41.80
2019-02-28T11:36:00.470Z,42.40
2019-02-28T11:37:00.557Z,44.90
2019-02-28T11:38:00.560Z,43.90
2019-02-28T11:39:00.492Z,42.80
2019-02-28T11:40:00.497Z,42.70
2019-02-28T11:41:00.522Z,40.70
2019-02-28T11:42:00.504Z,42.40
2019-02-28T11:43:02.688Z,43.60
2019-02-28T11:44:00.560Z,41.40
2019-02-28T11:45:00.664Z,43.50
2019-02-28T11:46:02.807Z,43.50
2019-02-28T11:47:00.550Z,44.20
2019-02-28T11:48:00.571Z,43.30
2019-02-28T11:49:00.611Z,44.60
2019-02-28T11:50:04.697Z,42.30
2019-02-28T11:51:00.583Z,43.50
2019-02-28T11:52:00.585Z,42.30
2019-02-28T11:53:04.909Z,42.20
2019-02-28T11:54:00.607Z,44.40
2019-02-28T11:55:00.607Z,42.40
2019-02-28T11:56:00.601Z,45.00
2019-02-28T11:57:03.021Z,43.60
2019-02-28T11:58:00.631Z,47.40
2019-02-28T11:59:00.657Z,42.60
2019-02-28T12:00:01.484Z,42.30
2019-02-28T12:01:02.259Z,42.20
2019-02-28T12:02:00.640Z,44.70
2019-02-28T12:03:00.986Z,44.80
2019-02-28T12:04:00.751Z,41.10
2019-02-28T12:05:00.693Z,43.70
2019-02-28T12:06:00.705Z,42.40
2019-02-28T12:07:01.003Z,45.20
2019-02-28T12:08:00.688Z,41.30
2019-02-28T12:09:00.678Z,43.80
2019-02-28T12:10:00.704Z,43.10
2019-02-28T12:11:01.890Z,42.90
2019-02-28T12:12:00.716Z,44.00
2019-02-28T12:13:00.719Z,43.60
2019-02-28T12:14:00.729Z,42.80
2019-02-28T12:15:02.776Z,40.80
2019-02-28T12:16:00.726Z,40.00
2019-02-28T12:17:00.771Z,44.20
2019-02-28T12:18:04.682Z,42.40
2019-02-28T12:19:00.766Z,41.70
2019-02-28T12:20:00.835Z,43.50
2019-02-28T12:21:02.073Z,43.20
2019-02-28T12:22:00.787Z,41.00
2019-02-28T12:23:00.765Z,42.20
2019-02-28T12:24:00.770Z,42.20
2019-02-28T12:25:00.853Z,41.70
2019-02-28T12:26:00.785Z,41.80
2019-02-28T12:27:00.818Z,39.70
2019-02-28T12:28:02.902Z,42.40
2019-02-28T12:29:00.824Z,39.70
2019-02-28T12:30:00.865Z,39.30
2019-02-28T12:31:01.135Z,40.00
2019-02-28T12:32:00.829Z,42.60
2019-02-28T12:33:00.867Z,40.60
2019-02-28T12:34:00.881Z,41.10
2019-02-28T12:35:02.402Z,42.50
2019-02-28T12:36:00.853Z,43.00
2019-02-28T12:37:00.863Z,41.30
2019-02-28T12:38:00.951Z,40.40
2019-02-28T12:39:02.280Z,40.10
2019-02-28T12:40:00.880Z,39.40
2019-02-28T12:41:00.910Z,37.50
2019-02-28T12:42:00.918Z,39.20
2019-02-28T12:43:00.900Z,40.70
2019-02-28T12:44:00.950Z,41.00
2019-02-28T12:45:00.949Z,42.30
2019-02-28T12:46:01.036Z,39.20
2019-02-28T12:47:03.311Z,40.20
2019-02-28T12:48:00.965Z,41.00
2019-02-28T12:49:00.983Z,40.10
2019-02-28T12:50:00.958Z,39.70
2019-02-28T12:51:02.287Z,39.60
2019-02-28T12:52:01.001Z,41.60
2019-02-28T12:53:00.987Z,39.80
2019-02-28T12:54:01.028Z,40.90
2019-02-28T12:55:04.020Z,42.40
2019-02-28T12:56:00.992Z,40.00
2019-02-28T12:57:01.031Z,39.00